Observation data for Anton on 07/11/2018      Previous  Date       Current Mesonet Observations  Soil Data  Daily Summary Page  Observations in Plain Language
KAOS 110505Z 17005KT 24/16 A3016 RMK A01 T02400157  RH  063%=      5-min Rain = 0
KAOS 110510Z 16004KT 24/16 A3016 RMK A01 T02380156  RH  063%=      5-min Rain = 0
KAOS 110515Z 16004KT 24/16 A3016 RMK A01 T02360156  RH  063%=      5-min Rain = 0
KAOS 110520Z 16004KT 24/15 A3016 RMK A01 T02350154  RH  064%=      5-min Rain = 0
KAOS 110525Z 16003KT 23/15 A3016 RMK A01 T02330154  RH  064%=      5-min Rain = 0
KAOS 110530Z 17003KT 23/16 A3016 RMK A01 T02320156  RH  065%=      5-min Rain = 0
KAOS 110535Z 17003KT 23/16 A3016 RMK A01 T02330156  RH  065%=      5-min Rain = 0
KAOS 110540Z 17003KT 23/16 A3016 RMK A01 T02330156  RH  065%=      5-min Rain = 0
KAOS 110545Z 16003KT 23/15 A3016 RMK A01 T02310154  RH  065%=      5-min Rain = 0
KAOS 110550Z 15003KT 23/15 A3016 RMK A01 T02290152  RH  065%=      5-min Rain = 0
KAOS 110555Z 17004KT 23/15 A3016 RMK A01 T02270152  RH  065%=      5-min Rain = 0
KAOS 110600Z 17005KT 22/15 A3016 RMK A01 T02240153  RH  067%=      5-min Rain = 0
KAOS 110605Z 17005KT 22/15 A3015 RMK A01 T02230153  RH  068%=      5-min Rain = 0
KAOS 110610Z 15004KT 22/15 A3016 RMK A01 T02230152  RH  067%=      5-min Rain = 0
KAOS 110615Z 15005KT 22/15 A3015 RMK A01 T02220151  RH  067%=      5-min Rain = 0
KAOS 110620Z 16005KT 22/15 A3015 RMK A01 T02200150  RH  068%=      5-min Rain = 0
KAOS 110625Z 17004KT 22/15 A3015 RMK A01 T02200151  RH  068%=      5-min Rain = 0
KAOS 110630Z 16004KT 22/15 A3015 RMK A01 T02190151  RH  068%=      5-min Rain = 0
KAOS 110635Z 17004KT 22/15 A3015 RMK A01 T02180152  RH  069%=      5-min Rain = 0
KAOS 110640Z 17004KT 21/15 A3015 RMK A01 T02140151  RH  071%=      5-min Rain = 0
KAOS 110645Z 18003KT 21/15 A3016 RMK A01 T02110151  RH  072%=      5-min Rain = 0
KAOS 110650Z 19003KT 21/15 A3016 RMK A01 T02120152  RH  072%=      5-min Rain = 0
KAOS 110655Z 19003KT 21/15 A3016 RMK A01 T02130154  RH  072%=      5-min Rain = 0
KAOS 110700Z 19003KT 22/15 A3016 RMK A01 T02150154  RH  072%=      5-min Rain = 0
KAOS 110705Z 19003KT 22/16 A3016 RMK A01 T02150155  RH  072%=      5-min Rain = 0
KAOS 110710Z 19004KT 22/16 A3015 RMK A01 T02160155  RH  072%=      5-min Rain = 0
KAOS 110715Z 19003KT 22/16 A3015 RMK A01 T02160156  RH  072%=      5-min Rain = 0
KAOS 110720Z 19003KT 22/16 A3015 RMK A01 T02160156  RH  072%=      5-min Rain = 0
KAOS 110725Z 19003KT 22/16 A3015 RMK A01 T02150155  RH  072%=      5-min Rain = 0
KAOS 110730Z 19002KT 21/15 A3016 RMK A01 T02140154  RH  072%=      5-min Rain = 0
KAOS 110735Z 17002KT 21/15 A3015 RMK A01 T02120152  RH  072%=      5-min Rain = 0
KAOS 110740Z 16003KT 21/15 A3015 RMK A01 T02120153  RH  073%=      5-min Rain = 0
KAOS 110745Z 16003KT 21/15 A3015 RMK A01 T02120154  RH  073%=      5-min Rain = 0
KAOS 110750Z 14003KT 21/15 A3015 RMK A01 T02110151  RH  072%=      5-min Rain = 0
KAOS 110755Z 13003KT 21/15 A3015 RMK A01 T02080146  RH  071%=      5-min Rain = 0
KAOS 110800Z 14002KT 21/15 A3015 RMK A01 T02100152  RH  073%=      5-min Rain = 0
KAOS 110805Z 13003KT 21/15 A3015 RMK A01 T02110150  RH  071%=      5-min Rain = 0
KAOS 110810Z 12003KT 21/15 A3015 RMK A01 T02090147  RH  071%=      5-min Rain = 0
KAOS 110815Z 14003KT 21/15 A3015 RMK A01 T02090150  RH  072%=      5-min Rain = 0
KAOS 110820Z 14002KT 21/15 A3015 RMK A01 T02090151  RH  073%=      5-min Rain = 0
KAOS 110825Z 14002KT 21/15 A3016 RMK A01 T02090152  RH  073%=      5-min Rain = 0
KAOS 110830Z 15003KT 21/15 A3015 RMK A01 T02100152  RH  073%=      5-min Rain = 0
KAOS 110835Z 17004KT 21/15 A3015 RMK A01 T02100153  RH  073%=      5-min Rain = 0
KAOS 110840Z 16003KT 21/15 A3015 RMK A01 T02100153  RH  073%=      5-min Rain = 0
KAOS 110845Z 16002KT 21/15 A3015 RMK A01 T02100153  RH  073%=      5-min Rain = 0
KAOS 110850Z 14002KT 21/15 A3015 RMK A01 T02080152  RH  073%=      5-min Rain = 0
KAOS 110855Z 14002KT 21/15 A3015 RMK A01 T02070152  RH  074%=      5-min Rain = 0
KAOS 110900Z 15002KT 21/15 A3015 RMK A01 T02060151  RH  074%=      5-min Rain = 0
KAOS 110905Z 14001KT 21/15 A3015 RMK A01 T02050150  RH  074%=      5-min Rain = 0
KAOS 110910Z 16002KT 21/15 A3015 RMK A01 T02050152  RH  075%=      5-min Rain = 0
KAOS 110915Z 16002KT 21/15 A3015 RMK A01 T02050152  RH  075%=      5-min Rain = 0
KAOS 110920Z 15001KT 20/15 A3015 RMK A01 T02040152  RH  075%=      5-min Rain = 0
KAOS 110925Z 14002KT 20/15 A3015 RMK A01 T02040153  RH  076%=      5-min Rain = 0
KAOS 110930Z 14002KT 20/15 A3015 RMK A01 T02040152  RH  076%=      5-min Rain = 0
KAOS 110935Z 14002KT 20/15 A3014 RMK A01 T02030152  RH  076%=      5-min Rain = 0
KAOS 110940Z 14002KT 20/15 A3014 RMK A01 T02020153  RH  076%=      5-min Rain = 0
KAOS 110945Z 13001KT 20/15 A3014 RMK A01 T02020152  RH  077%=      5-min Rain = 0
KAOS 110950Z 12000KT 20/15 A3014 RMK A01 T02010150  RH  076%=      5-min Rain = 0
KAOS 110955Z 12000KT 20/15 A3014 RMK A01 T01980146  RH  075%=      5-min Rain = 0
KAOS 111000Z 11001KT 20/15 A3014 RMK A01 T01960147  RH  077%=      5-min Rain = 0
KAOS 111005Z 13002KT 20/15 A3014 RMK A01 T01960151  RH  078%=      5-min Rain = 0
KAOS 111010Z 13003KT 20/15 A3014 RMK A01 T01990152  RH  078%=      5-min Rain = 0
KAOS 111015Z 10002KT 20/15 A3014 RMK A01 T01990150  RH  077%=      5-min Rain = 0
KAOS 111020Z 11002KT 20/15 A3014 RMK A01 T01980148  RH  076%=      5-min Rain = 0
KAOS 111025Z 11003KT 20/15 A3014 RMK A01 T01960147  RH  076%=      5-min Rain = 0
KAOS 111030Z 09003KT 19/15 A3015 RMK A01 T01940145  RH  077%=      5-min Rain = 0
KAOS 111035Z 09003KT 19/15 A3015 RMK A01 T01930146  RH  078%=      5-min Rain = 0
KAOS 111040Z 09003KT 19/15 A3015 RMK A01 T01930148  RH  079%=      5-min Rain = 0
KAOS 111045Z 09004KT 19/15 A3015 RMK A01 T01930149  RH  079%=      5-min Rain = 0
KAOS 111050Z 09004KT 19/15 A3015 RMK A01 T01940149  RH  079%=      5-min Rain = 0
KAOS 111055Z 09003KT 19/15 A3015 RMK A01 T01940149  RH  079%=      5-min Rain = 0
KAOS 111100Z 10003KT 19/15 A3015 RMK A01 T01940149  RH  079%=      5-min Rain = 0
KAOS 111105Z 11002KT 19/15 A3015 RMK A01 T01940150  RH  079%=      5-min Rain = 0
KAOS 111110Z 11002KT 19/15 A3015 RMK A01 T01930150  RH  080%=      5-min Rain = 0
KAOS 111115Z 12002KT 19/15 A3015 RMK A01 T01930151  RH  080%=      5-min Rain = 0
KAOS 111120Z 13003KT 19/15 A3015 RMK A01 T01930150  RH  080%=      5-min Rain = 0
KAOS 111125Z 13003KT 19/15 A3015 RMK A01 T01920149  RH  080%=      5-min Rain = 0
KAOS 111130Z 12003KT 19/15 A3015 RMK A01 T01910147  RH  079%=      5-min Rain = 0
KAOS 111135Z 11003KT 19/15 A3015 RMK A01 T01890146  RH  080%=      5-min Rain = 0
KAOS 111140Z 12003KT 19/15 A3015 RMK A01 T01890148  RH  081%=      5-min Rain = 0
KAOS 111145Z 13002KT 19/15 A3015 RMK A01 T01890150  RH  081%=      5-min Rain = 0
KAOS 111150Z 14002KT 19/15 A3015 RMK A01 T01900152  RH  082%=      5-min Rain = 0
KAOS 111155Z 14002KT 19/15 A3015 RMK A01 T01910153  RH  082%=      5-min Rain = 0
KAOS 111200Z 14002KT 19/15 A3015 RMK A01 T01920154  RH  082%=      5-min Rain = 0
KAOS 111205Z 15002KT 19/15 A3015 RMK A01 T01920154  RH  082%=      5-min Rain = 0
KAOS 111210Z 15002KT 19/16 A3015 RMK A01 T01920155  RH  083%=      5-min Rain = 0
KAOS 111215Z 16002KT 19/15 A3016 RMK A01 T01920154  RH  083%=      5-min Rain = 0
KAOS 111220Z 16003KT 19/15 A3015 RMK A01 T01920152  RH  081%=      5-min Rain = 0
KAOS 111225Z 16004KT 19/15 A3015 RMK A01 T01910152  RH  081%=      5-min Rain = 0
KAOS 111230Z 16004KT 19/15 A3015 RMK A01 T01910150  RH  081%=      5-min Rain = 0
KAOS 111235Z 16004KT 19/15 A3015 RMK A01 T01920152  RH  081%=      5-min Rain = 0
KAOS 111240Z 15004KT 19/15 A3015 RMK A01 T01920152  RH  081%=      5-min Rain = 0
KAOS 111245Z 16004KT 19/15 A3015 RMK A01 T01920152  RH  081%=      5-min Rain = 0
KAOS 111250Z 16004KT 19/15 A3015 RMK A01 T01930151  RH  080%=      5-min Rain = 0
KAOS 111255Z 16004KT 20/15 A3015 RMK A01 T01950154  RH  080%=      5-min Rain = 0
KAOS 111300Z 17005KT 20/15 A3015 RMK A01 T01980153  RH  079%=      5-min Rain = 0
KAOS 111305Z 17005KT 20/15 A3015 RMK A01 T02000153  RH  078%=      5-min Rain = 0
KAOS 111310Z 18006KT 20/15 A3015 RMK A01 T02030154  RH  077%=      5-min Rain = 0
KAOS 111315Z 18007KT 21/15 A3015 RMK A01 T02070153  RH  075%=      5-min Rain = 0
KAOS 111320Z 18008KT 21/15 A3015 RMK A01 T02100152  RH  073%=      5-min Rain = 0
KAOS 111325Z 18008KT 21/15 A3015 RMK A01 T02130152  RH  071%=      5-min Rain = 0
KAOS 111330Z 17008KT 22/15 A3016 RMK A01 T02150151  RH  070%=      5-min Rain = 0
KAOS 111335Z 18009KT 22/15 A3016 RMK A01 T02180151  RH  068%=      5-min Rain = 0
KAOS 111340Z 18010KT 22/15 A3016 RMK A01 T02210151  RH  068%=      5-min Rain = 0
KAOS 111345Z 17011KT 22/15 A3016 RMK A01 T02240152  RH  066%=      5-min Rain = 0
KAOS 111350Z 17011KT 23/15 A3016 RMK A01 T02270152  RH  066%=      5-min Rain = 0
KAOS 111355Z 18012KT 23/15 A3016 RMK A01 T02320153  RH  064%=      5-min Rain = 0
KAOS 111400Z 18012KT 24/15 A3016 RMK A01 T02360154  RH  063%=      5-min Rain = 0
KAOS 111405Z 18013G19KT 24/15 A3016 RMK A01 T02420154  RH  061%=      5-min Rain = 0
KAOS 111410Z 18014KT 25/16 A3016 RMK A01 T02460155  RH  060%=      5-min Rain = 0
KAOS 111415Z 19013KT 25/16 A3016 RMK A01 T02490156  RH  059%=      5-min Rain = 0
KAOS 111420Z 18015KT 25/16 A3016 RMK A01 T02540157  RH  058%=      5-min Rain = 0
KAOS 111425Z 18015KT 26/16 A3016 RMK A01 T02560157  RH  057%=      5-min Rain = 0
KAOS 111430Z 18015KT 26/16 A3016 RMK A01 T02570157  RH  056%=      5-min Rain = 0
KAOS 111435Z 18014KT 26/16 A3016 RMK A01 T02600157  RH  055%=      5-min Rain = 0
KAOS 111440Z 18015KT 26/16 A3016 RMK A01 T02610156  RH  055%=      5-min Rain = 0
KAOS 111445Z 19015KT 26/16 A3016 RMK A01 T02610156  RH  055%=      5-min Rain = 0
KAOS 111450Z 18014KT 26/16 A3016 RMK A01 T02630157  RH  055%=      5-min Rain = 0
KAOS 111455Z 19015KT 27/16 A3016 RMK A01 T02650155  RH  053%=      5-min Rain = 0
KAOS 111500Z 18014KT 27/16 A3016 RMK A01 T02680155  RH  052%=      5-min Rain = 0
KAOS 111505Z 19015G20KT 27/15 A3016 RMK A01 T02690154  RH  052%=      5-min Rain = 0
KAOS 111510Z 19015KT 27/15 A3016 RMK A01 T02720153  RH  051%=      5-min Rain = 0
KAOS 111515Z 19015KT 27/15 A3016 RMK A01 T02720153  RH  051%=      5-min Rain = 0
KAOS 111520Z 19013KT 27/15 A3016 RMK A01 T02690154  RH  052%=      5-min Rain = 0
KAOS 111525Z 19014KT 28/15 A3016 RMK A01 T02750154  RH  050%=      5-min Rain = 0
KAOS 111530Z 18013KT 28/16 A3016 RMK A01 T02750155  RH  050%=      5-min Rain = 0
KAOS 111535Z 19015KT 28/15 A3016 RMK A01 T02750154  RH  050%=      5-min Rain = 0
KAOS 111540Z 18013KT 28/16 A3015 RMK A01 T02800155  RH  049%=      5-min Rain = 0
KAOS 111545Z 18013KT 28/16 A3015 RMK A01 T02820155  RH  048%=      5-min Rain = 0
KAOS 111550Z 18014KT 28/16 A3015 RMK A01 T02810156  RH  049%=      5-min Rain = 0
KAOS 111555Z 18014KT 28/16 A3015 RMK A01 T02820156  RH  048%=      5-min Rain = 0
KAOS 111600Z 18013G19KT 29/15 A3015 RMK A01 T02850154  RH  047%=      5-min Rain = 0
KAOS 111605Z 17013G18KT 29/15 A3015 RMK A01 T02870153  RH  046%=      5-min Rain = 0
KAOS 111610Z 17014G19KT 29/15 A3015 RMK A01 T02900150  RH  045%=      5-min Rain = 0
KAOS 111615Z 18014G19KT 29/15 A3015 RMK A01 T02920152  RH  044%=      5-min Rain = 0
KAOS 111620Z 18015KT 29/15 A3015 RMK A01 T02900147  RH  043%=      5-min Rain = 0
KAOS 111625Z 19014G19KT 29/15 A3015 RMK A01 T02900147  RH  044%=      5-min Rain = 0
KAOS 111630Z 19014KT 30/15 A3015 RMK A01 T02950145  RH  042%=      5-min Rain = 0
KAOS 111635Z 18014KT 30/14 A3015 RMK A01 T02960141  RH  041%=      5-min Rain = 0
KAOS 111640Z 18013KT 30/14 A3015 RMK A01 T02990142  RH  040%=      5-min Rain = 0
KAOS 111645Z 18014KT 30/14 A3015 RMK A01 T02980142  RH  040%=      5-min Rain = 0
KAOS 111650Z 17014KT 30/14 A3015 RMK A01 T02980139  RH  039%=      5-min Rain = 0
KAOS 111655Z 18013G18KT 30/14 A3015 RMK A01 T03000140  RH  039%=      5-min Rain = 0
KAOS 111700Z 16013G18KT 30/14 A3015 RMK A01 T03010140  RH  039%=      5-min Rain = 0
KAOS 111705Z 16014G20KT 30/14 A3015 RMK A01 T03020138  RH  038%=      5-min Rain = 0
KAOS 111710Z 16014G21KT 30/14 A3015 RMK A01 T03020138  RH  038%=      5-min Rain = 0
KAOS 111715Z 17015G20KT 30/14 A3015 RMK A01 T03020140  RH  039%=      5-min Rain = 0
KAOS 111720Z 16013G20KT 30/14 A3015 RMK A01 T03020142  RH  039%=      5-min Rain = 0
KAOS 111725Z 16017KT 31/13 A3014 RMK A01 T03080134  RH  036%=      5-min Rain = 0
KAOS 111730Z 16014G22KT 31/14 A3014 RMK A01 T03080137  RH  037%=      5-min Rain = 0
KAOS 111735Z 18014G23KT 31/14 A3014 RMK A01 T03090136  RH  036%=      5-min Rain = 0
KAOS 111740Z 17018G24KT 31/13 A3014 RMK A01 T03130128  RH  034%=      5-min Rain = 0
KAOS 111745Z 16015G21KT 31/13 A3014 RMK A01 T03140126  RH  033%=      5-min Rain = 0
KAOS 111750Z 16016G21KT 32/13 A3014 RMK A01 T03170127  RH  033%=      5-min Rain = 0
KAOS 111755Z 16014G19KT 31/13 A3014 RMK A01 T03140126  RH  033%=      5-min Rain = 0
KAOS 111800Z 18016G23KT 31/13 A3014 RMK A01 T03130129  RH  034%=      5-min Rain = 0
KAOS 111805Z 16017KT 31/13 A3013 RMK A01 T03130128  RH  034%=      5-min Rain = 0
KAOS 111810Z 18014G21KT 32/13 A3013 RMK A01 T03180130  RH  033%=      5-min Rain = 0
KAOS 111815Z 17016G21KT 32/13 A3013 RMK A01 T03170130  RH  033%=      5-min Rain = 0
KAOS 111820Z 17015G22KT 32/13 A3013 RMK A01 T03180131  RH  033%=      5-min Rain = 0
KAOS 111825Z 15018G25KT 32/13 A3012 RMK A01 T03180132  RH  034%=      5-min Rain = 0
KAOS 111830Z 18016G26KT 32/13 A3012 RMK A01 T03190133  RH  034%=      5-min Rain = 0
KAOS 111835Z 16015G21KT 32/14 A3012 RMK A01 T03190135  RH  034%=      5-min Rain = 0
KAOS 111840Z 15016KT 32/14 A3012 RMK A01 T03180135  RH  034%=      5-min Rain = 0
KAOS 111845Z 16016G25KT 32/13 A3012 RMK A01 T03190134  RH  034%=      5-min Rain = 0
KAOS 111850Z 16016G23KT 32/13 A3011 RMK A01 T03150134  RH  035%=      5-min Rain = 0
KAOS 111855Z 16019G24KT 32/13 A3011 RMK A01 T03180132  RH  034%=      5-min Rain = 0
KAOS 111900Z 16013G18KT 31/13 A3011 RMK A01 T03140130  RH  034%=      5-min Rain = 0
KAOS 111905Z 17019G24KT 32/13 A3011 RMK A01 T03180129  RH  033%=      5-min Rain = 0
KAOS 111910Z 17016G23KT 32/13 A3011 RMK A01 T03240131  RH  032%=      5-min Rain = 0
KAOS 111915Z 16017G24KT 33/13 A301 RMK A01 T03260132  RH  032%=      5-min Rain = 0
KAOS 111920Z 16018G23KT 33/13 A301 RMK A01 T03270134  RH  032%=      5-min Rain = 0
KAOS 111925Z 17018G23KT 32/13 A301 RMK A01 T03230130  RH  032%=      5-min Rain = 0
KAOS 111930Z 18017G25KT 33/13 A3009 RMK A01 T03260131  RH  032%=      5-min Rain = 0
KAOS 111935Z 16019G29KT 33/13 A3009 RMK A01 T03290131  RH  031%=      5-min Rain = 0
KAOS 111940Z 18016G23KT 33/13 A3009 RMK A01 T03290130  RH  031%=      5-min Rain = 0
KAOS 111945Z 17019G27KT 33/13 A3009 RMK A01 T03300133  RH  031%=      5-min Rain = 0
KAOS 111950Z 17018G25KT 33/13 A3009 RMK A01 T03310132  RH  031%=      5-min Rain = 0
KAOS 111955Z 17013G21KT 33/13 A3009 RMK A01 T03290128  RH  031%=      5-min Rain = 0
KAOS 112000Z 17017G25KT 33/13 A3009 RMK A01 T03320132  RH  031%=      5-min Rain = 0
KAOS 112005Z 16018G23KT 33/13 A3009 RMK A01 T03290131  RH  031%=      5-min Rain = 0
KAOS 112010Z 16019G25KT 32/13 A3008 RMK A01 T03240131  RH  032%=      5-min Rain = 0
KAOS 112015Z 16015G21KT 32/13 A3008 RMK A01 T03220130  RH  033%=      5-min Rain = 0
KAOS 112020Z 16018G26KT 33/13 A3008 RMK A01 T03260134  RH  032%=      5-min Rain = 0
KAOS 112025Z 17017G25KT 33/13 A3008 RMK A01 T03340132  RH  031%=      5-min Rain = 0
KAOS 112030Z 16018G23KT 34/13 A3007 RMK A01 T03370133  RH  030%=      5-min Rain = 0
KAOS 112035Z 15018G26KT 34/13 A3007 RMK A01 T03380132  RH  030%=      5-min Rain = 0
KAOS 112040Z 15018G24KT 33/13 A3007 RMK A01 T03320131  RH  031%=      5-min Rain = 0
KAOS 112045Z 15015G22KT 33/13 A3006 RMK A01 T03300129  RH  031%=      5-min Rain = 0
KAOS 112050Z 15015KT 33/13 A3006 RMK A01 T03310130  RH  031%=      5-min Rain = 0
KAOS 112055Z 16019G25KT 33/13 A3006 RMK A01 T03300132  RH  031%=      5-min Rain = 0
KAOS 112100Z 17017G24KT 33/13 A3006 RMK A01 T03300131  RH  031%=      5-min Rain = 0
KAOS 112105Z 16016G21KT 33/13 A3006 RMK A01 T03310131  RH  031%=      5-min Rain = 0
KAOS 112110Z 16015G24KT 33/13 A3005 RMK A01 T03300130  RH  031%=      5-min Rain = 0
KAOS 112115Z 17018KT 33/13 A3005 RMK A01 T03280129  RH  031%=      5-min Rain = 0
KAOS 112120Z 16015G21KT 33/13 A3005 RMK A01 T03250127  RH  031%=      5-min Rain = 0
KAOS 112125Z 17017G25KT 33/13 A3004 RMK A01 T03310128  RH  030%=      5-min Rain = 0
KAOS 112130Z 18017KT 33/13 A3004 RMK A01 T03290125  RH  030%=      5-min Rain = 0
KAOS 112135Z 18015G23KT 33/13 A3004 RMK A01 T03280126  RH  030%=      5-min Rain = 0
KAOS 112140Z 16016G21KT 33/13 A3004 RMK A01 T03340126  RH  030%=      5-min Rain = 0
KAOS 112145Z 18019G24KT 34/13 A3004 RMK A01 T03380126  RH  029%=      5-min Rain = 0
KAOS 112150Z 18014G24KT 34/12 A3004 RMK A01 T03360124  RH  029%=      5-min Rain = 0
KAOS 112155Z 18013G19KT 33/13 A3003 RMK A01 T03320126  RH  030%=      5-min Rain = 0
KAOS 112200Z 16018G24KT 33/13 A3003 RMK A01 T03300125  RH  030%=      5-min Rain = 0
KAOS 112205Z 17015G22KT 33/13 A3003 RMK A01 T03330125  RH  029%=      5-min Rain = 0
KAOS 112210Z 18014G19KT 33/12 A3003 RMK A01 T03310123  RH  029%=      5-min Rain = 0
KAOS 112215Z 18017KT 33/13 A3003 RMK A01 T03330125  RH  029%=      5-min Rain = 0
KAOS 112220Z 16016G23KT 33/13 A3003 RMK A01 T03340125  RH  029%=      5-min Rain = 0
KAOS 112225Z 16016G23KT 33/13 A3003 RMK A01 T03300125  RH  030%=      5-min Rain = 0
KAOS 112230Z 18017G24KT 33/13 A3003 RMK A01 T03300126  RH  030%=      5-min Rain = 0
KAOS 112235Z 18016KT 33/12 A3003 RMK A01 T03320123  RH  029%=      5-min Rain = 0
KAOS 112240Z 18017G22KT 33/12 A3003 RMK A01 T03270123  RH  030%=      5-min Rain = 0
KAOS 112245Z 19015G22KT 33/13 A3003 RMK A01 T03270125  RH  030%=      5-min Rain = 0
KAOS 112250Z 19016G22KT 33/13 A3003 RMK A01 T03320126  RH  030%=      5-min Rain = 0
KAOS 112255Z 18016G22KT 33/12 A3003 RMK A01 T03340124  RH  029%=      5-min Rain = 0
KAOS 112300Z 18014G21KT 33/12 A3003 RMK A01 T03320124  RH  029%=      5-min Rain = 0
KAOS 112305Z 18016KT 33/12 A3002 RMK A01 T03340124  RH  029%=      5-min Rain = 0
KAOS 112310Z 18015G21KT 34/12 A3003 RMK A01 T03360124  RH  029%=      5-min Rain = 0
KAOS 112315Z 18017KT 33/12 A3002 RMK A01 T03340123  RH  029%=      5-min Rain = 0
KAOS 112320Z 17014G19KT 34/12 A3002 RMK A01 T03350123  RH  029%=      5-min Rain = 0
KAOS 112325Z 18014KT 34/13 A3002 RMK A01 T03350125  RH  029%=      5-min Rain = 0
KAOS 112330Z 17015G20KT 34/13 A3002 RMK A01 T03370125  RH  029%=      5-min Rain = 0
KAOS 112335Z 19017KT 33/12 A3002 RMK A01 T03330124  RH  029%=      5-min Rain = 0
KAOS 112340Z 18016KT 33/12 A3002 RMK A01 T03310123  RH  029%=      5-min Rain = 0
KAOS 112345Z 16016G21KT 33/12 A3002 RMK A01 T03330123  RH  029%=      5-min Rain = 0
KAOS 112350Z 18015KT 33/12 A3002 RMK A01 T03320123  RH  029%=      5-min Rain = 0
KAOS 112355Z 18015KT 33/12 A3001 RMK A01 T03310124  RH  030%=      5-min Rain = 0
KAOS 120000Z 17015KT 33/13 A3001 RMK A01 T03320126  RH  030%=      5-min Rain = 0
KAOS 120005Z 18016KT 33/13 A3002 RMK A01 T03320125  RH  030%=      5-min Rain = 0
KAOS 120010Z 16017KT 33/13 A3002 RMK A01 T03280125  RH  030%=      5-min Rain = 0
KAOS 120015Z 17015KT 33/13 A3002 RMK A01 T03250125  RH  031%=      5-min Rain = 0
KAOS 120020Z 18016KT 32/12 A3002 RMK A01 T03220124  RH  031%=      5-min Rain = 0
KAOS 120025Z 17014KT 32/12 A3003 RMK A01 T03200123  RH  031%=      5-min Rain = 0
KAOS 120030Z 17014KT 32/12 A3003 RMK A01 T03190124  RH  032%=      5-min Rain = 0
KAOS 120035Z 17013G18KT 32/13 A3003 RMK A01 T03170125  RH  032%=      5-min Rain = 0
KAOS 120040Z 17011KT 32/13 A3003 RMK A01 T03170125  RH  032%=      5-min Rain = 0
KAOS 120045Z 18013KT 32/13 A3003 RMK A01 T03160125  RH  032%=      5-min Rain = 0
KAOS 120050Z 18014KT 32/13 A3003 RMK A01 T03150125  RH  033%=      5-min Rain = 0
KAOS 120055Z 18012KT 31/13 A3004 RMK A01 T03140125  RH  033%=      5-min Rain = 0
KAOS 120100Z 18012KT 31/13 A3004 RMK A01 T03140126  RH  033%=      5-min Rain = 0
KAOS 120105Z 18013KT 31/13 A3004 RMK A01 T03140127  RH  033%=      5-min Rain = 0
KAOS 120110Z 17012KT 32/13 A3003 RMK A01 T03150126  RH  033%=      5-min Rain = 0
KAOS 120115Z 17012KT 32/13 A3003 RMK A01 T03150126  RH  033%=      5-min Rain = 0
KAOS 120120Z 17011KT 31/13 A3004 RMK A01 T03140125  RH  033%=      5-min Rain = 0
KAOS 120125Z 17011KT 31/13 A3004 RMK A01 T03140125  RH  033%=      5-min Rain = 0
KAOS 120130Z 16012KT 31/13 A3004 RMK A01 T03140125  RH  033%=      5-min Rain = 0
KAOS 120135Z 15011KT 31/13 A3004 RMK A01 T03130126  RH  033%=      5-min Rain = 0
KAOS 120140Z 15011KT 31/13 A3004 RMK A01 T03120126  RH  033%=      5-min Rain = 0
KAOS 120145Z 15011KT 31/13 A3004 RMK A01 T03110126  RH  033%=      5-min Rain = 0
KAOS 120150Z 15011KT 31/13 A3004 RMK A01 T03090126  RH  034%=      5-min Rain = 0
KAOS 120155Z 15013KT 31/13 A3004 RMK A01 T03080127  RH  034%=      5-min Rain = 0
KAOS 120200Z 15011KT 31/13 A3004 RMK A01 T03060129  RH  035%=      5-min Rain = 0
KAOS 120205Z 15010KT 30/13 A3005 RMK A01 T03040129  RH  036%=      5-min Rain = 0
KAOS 120210Z 15010KT 30/13 A3005 RMK A01 T03020129  RH  036%=      5-min Rain = 0
KAOS 120215Z 15009KT 30/13 A3005 RMK A01 T03010130  RH  036%=      5-min Rain = 0
KAOS 120220Z 15009KT 30/13 A3005 RMK A01 T03000130  RH  037%=      5-min Rain = 0
KAOS 120225Z 15010KT 30/13 A3005 RMK A01 T03000130  RH  037%=      5-min Rain = 0
KAOS 120230Z 14010KT 30/13 A3005 RMK A01 T03000131  RH  037%=      5-min Rain = 0
KAOS 120235Z 15009KT 30/13 A3006 RMK A01 T02980131  RH  037%=      5-min Rain = 0
KAOS 120240Z 15009KT 30/13 A3006 RMK A01 T02970132  RH  038%=      5-min Rain = 0
KAOS 120245Z 15009KT 30/13 A3006 RMK A01 T02950132  RH  038%=      5-min Rain = 0
KAOS 120250Z 16011KT 29/13 A3006 RMK A01 T02930133  RH  039%=      5-min Rain = 0
KAOS 120255Z 16009KT 29/13 A3007 RMK A01 T02930133  RH  039%=      5-min Rain = 0
KAOS 120300Z 16009KT 29/14 A3007 RMK A01 T02910135  RH  040%=      5-min Rain = 0
KAOS 120305Z 16009KT 29/14 A3007 RMK A01 T02910137  RH  041%=      5-min Rain = 0
KAOS 120310Z 15008KT 29/14 A3007 RMK A01 T02900137  RH  041%=      5-min Rain = 0
KAOS 120315Z 14008KT 29/14 A3007 RMK A01 T02880136  RH  041%=      5-min Rain = 0
KAOS 120320Z 14009KT 29/14 A3007 RMK A01 T02870137  RH  041%=      5-min Rain = 0
KAOS 120325Z 14009KT 29/14 A3008 RMK A01 T02870137  RH  041%=      5-min Rain = 0
KAOS 120330Z 14010KT 29/14 A3008 RMK A01 T02870137  RH  041%=      5-min Rain = 0
KAOS 120335Z 14009KT 29/14 A3008 RMK A01 T02860137  RH  042%=      5-min Rain = 0
KAOS 120340Z 14009KT 29/14 A3009 RMK A01 T02850138  RH  042%=      5-min Rain = 0
KAOS 120345Z 14009KT 28/14 A3009 RMK A01 T02840138  RH  042%=      5-min Rain = 0
KAOS 120350Z 14009KT 28/14 A3009 RMK A01 T02830139  RH  043%=      5-min Rain = 0
KAOS 120355Z 14009KT 28/14 A3009 RMK A01 T02830139  RH  043%=      5-min Rain = 0
KAOS 120400Z 15008KT 28/14 A3009 RMK A01 T02820140  RH  044%=      5-min Rain = 0
KAOS 120405Z 15008KT 28/14 A3009 RMK A01 T02810140  RH  044%=      5-min Rain = 0
KAOS 120410Z 15008KT 28/14 A3009 RMK A01 T02800140  RH  044%=      5-min Rain = 0
KAOS 120415Z 14008KT 28/14 A301 RMK A01 T02790140  RH  044%=      5-min Rain = 0
KAOS 120420Z 14011G18KT 28/14 A301 RMK A01 T02790141  RH  045%=      5-min Rain = 0
KAOS 120425Z 14013KT 28/15 A301 RMK A01 T02780146  RH  046%=      5-min Rain = 0
KAOS 120430Z 14015KT 28/15 A301 RMK A01 T02790145  RH  046%=      5-min Rain = 0
KAOS 120435Z 13018G24KT 28/15 A301 RMK A01 T02770152  RH  048%=      5-min Rain = 0
KAOS 120440Z 13016G22KT 28/15 A301 RMK A01 T02750151  RH  049%=      5-min Rain = 0
KAOS 120445Z 13015KT 27/15 A3011 RMK A01 T02740153  RH  050%=      5-min Rain = 0
KAOS 120450Z 13018G23KT 27/15 A3011 RMK A01 T02730151  RH  049%=      5-min Rain = 0
KAOS 120455Z 13020G25KT 27/15 A3011 RMK A01 T02730148  RH  048%=      5-min Rain = 0
KAOS 120500Z 13020KT 27/15 A3011 RMK A01 T02740150  RH  049%=      5-min Rain = 0

Page generated in 0.0099 seconds.